createdAt,value
2018-06-01T00:01:47.905Z,14.47
2018-06-01T00:04:16.145Z,12.53
2018-06-01T00:06:45.179Z,13.33
2018-06-01T00:09:17.322Z,13.67
2018-06-01T00:11:45.579Z,14.70
2018-06-01T00:14:14.631Z,13.83
2018-06-01T00:16:42.898Z,11.17
2018-06-01T00:19:11.138Z,13.70
2018-06-01T00:21:40.152Z,13.13
2018-06-01T00:24:08.445Z,12.87
2018-06-01T00:26:36.716Z,12.73
2018-06-01T00:29:05.753Z,13.23
2018-06-01T00:31:34.921Z,11.37
2018-06-01T00:34:03.206Z,10.87
2018-06-01T00:36:31.471Z,12.83
2018-06-01T00:39:00.515Z,13.27
2018-06-01T00:41:28.760Z,13.20
2018-06-01T00:43:57.025Z,13.07
2018-06-01T00:46:26.070Z,13.00
2018-06-01T00:48:54.313Z,12.80
2018-06-01T00:51:22.567Z,12.90
2018-06-01T00:53:51.583Z,12.17
2018-06-01T00:56:20.620Z,13.70
2018-06-01T00:58:48.873Z,14.63
2018-06-01T01:01:17.127Z,13.37
2018-06-01T01:03:46.896Z,13.63
2018-06-01T01:06:15.155Z,15.50
2018-06-01T01:08:43.393Z,13.40
2018-06-01T01:11:11.653Z,13.00
2018-06-01T01:13:39.916Z,13.00
2018-06-01T01:16:08.164Z,13.97
2018-06-01T01:18:36.450Z,11.37
2018-06-01T01:21:04.731Z,13.50
2018-06-01T01:23:33.023Z,12.83
2018-06-01T01:26:01.288Z,14.00
2018-06-01T01:28:29.588Z,15.60
2018-06-01T01:30:57.843Z,14.00
2018-06-01T01:33:26.873Z,15.10
2018-06-01T01:35:55.110Z,14.57
2018-06-01T01:38:24.128Z,14.10
2018-06-01T01:40:58.289Z,14.70
2018-06-01T01:43:26.564Z,14.27
2018-06-01T01:45:54.828Z,13.33
2018-06-01T01:48:23.081Z,13.80
2018-06-01T01:50:52.108Z,14.47
2018-06-01T01:53:20.360Z,13.90
2018-06-01T01:55:49.385Z,15.17
2018-06-01T01:58:17.639Z,14.23
2018-06-01T02:00:45.901Z,13.70
2018-06-01T02:03:14.912Z,12.33
2018-06-01T02:05:43.943Z,14.00
2018-06-01T02:08:12.188Z,14.53
2018-06-01T02:10:40.495Z,15.60
2018-06-01T02:13:11.530Z,14.27
2018-06-01T02:15:39.806Z,14.47
2018-06-01T02:18:08.093Z,14.10
2018-06-01T02:20:36.332Z,14.40
2018-06-01T02:23:04.662Z,15.60
2018-06-01T02:25:32.922Z,16.27
2018-06-01T02:28:01.205Z,16.43
2018-06-01T02:30:29.455Z,13.73
2018-06-01T02:32:57.709Z,14.10
2018-06-01T02:35:26.049Z,14.97
2018-06-01T02:37:54.365Z,16.20
2018-06-01T02:40:22.618Z,15.60
2018-06-01T02:42:50.897Z,19.30
2018-06-01T02:45:19.170Z,14.50
2018-06-01T02:47:47.425Z,14.77
2018-06-01T02:50:16.457Z,16.23
2018-06-01T02:52:44.717Z,15.97
2018-06-01T02:55:13.017Z,17.37
2018-06-01T02:57:41.284Z,18.37
2018-06-01T03:00:10.297Z,19.50
2018-06-01T03:02:38.586Z,21.17
2018-06-01T03:05:06.840Z,21.43
2018-06-01T03:07:35.878Z,20.27
2018-06-01T03:10:04.113Z,19.93
2018-06-01T03:12:33.144Z,18.80
2018-06-01T03:15:01.410Z,18.50
2018-06-01T03:17:29.670Z,18.33
2018-06-01T03:19:57.953Z,18.33
2018-06-01T03:22:26.958Z,19.40
2018-06-01T03:24:55.220Z,19.17
2018-06-01T03:27:23.485Z,20.60
2018-06-01T03:29:53.239Z,19.97
2018-06-01T03:32:21.488Z,18.17
2018-06-01T03:34:49.733Z,19.10
2018-06-01T03:37:18.008Z,18.90
2018-06-01T03:39:46.236Z,19.67
2018-06-01T03:42:15.261Z,19.90
2018-06-01T03:44:43.530Z,22.07
2018-06-01T03:47:12.528Z,21.77
2018-06-01T03:49:40.804Z,21.57
2018-06-01T03:52:09.084Z,20.93
2018-06-01T03:54:38.096Z,20.93
2018-06-01T03:57:06.356Z,22.53
2018-06-01T03:59:35.373Z,19.90
2018-06-01T04:02:03.644Z,20.80
2018-06-01T04:04:32.836Z,21.37
2018-06-01T04:07:01.859Z,21.47
2018-06-01T04:09:30.111Z,17.90
2018-06-01T04:11:59.124Z,18.07
2018-06-01T04:14:27.407Z,18.10
2018-06-01T04:16:55.694Z,21.00
2018-06-01T04:19:24.704Z,21.33
2018-06-01T04:21:52.978Z,22.13
2018-06-01T04:24:21.241Z,23.17
2018-06-01T04:26:49.502Z,21.97
2018-06-01T04:29:17.791Z,22.97
2018-06-01T04:31:46.018Z,23.67
2018-06-01T04:34:14.283Z,21.27
2018-06-01T04:36:42.544Z,20.07
2018-06-01T04:39:11.540Z,18.93
2018-06-01T04:41:39.816Z,18.20
2018-06-01T04:44:08.840Z,17.50
2018-06-01T04:46:37.089Z,18.57
2018-06-01T04:49:05.413Z,18.70
2018-06-01T04:51:33.676Z,18.27
2018-06-01T04:54:01.928Z,20.97
2018-06-01T04:56:30.960Z,21.27
2018-06-01T04:58:59.199Z,24.40
2018-06-01T05:01:28.223Z,22.90
2018-06-01T05:03:56.472Z,24.00
2018-06-01T05:06:25.505Z,26.30
2018-06-01T05:08:53.752Z,28.07
2018-06-01T05:11:22.795Z,26.40
2018-06-01T05:13:51.029Z,31.77
2018-06-01T05:16:20.077Z,30.70
2018-06-01T05:18:48.321Z,29.37
2018-06-01T05:21:17.337Z,35.70
2018-06-01T05:23:45.610Z,36.47
2018-06-01T05:26:13.885Z,38.20
2018-06-01T05:28:42.920Z,35.83
2018-06-01T05:31:11.241Z,34.30
2018-06-01T05:33:39.575Z,29.30
2018-06-01T05:36:07.855Z,25.90
2018-06-01T05:38:36.119Z,30.53
2018-06-01T05:41:04.369Z,30.40
2018-06-01T05:43:32.626Z,30.17
2018-06-01T05:46:00.889Z,30.60
2018-06-01T05:48:29.188Z,27.40
2018-06-01T05:50:57.437Z,24.80
2018-06-01T05:53:25.704Z,24.57
2018-06-01T05:55:53.973Z,26.00
2018-06-01T05:58:22.972Z,23.20
2018-06-01T06:00:51.355Z,26.13
2018-06-01T06:03:19.608Z,26.90
2018-06-01T06:05:47.974Z,26.10
2018-06-01T06:08:16.225Z,23.10
2018-06-01T06:10:44.484Z,22.90
2018-06-01T06:13:12.770Z,20.20
2018-06-01T06:15:41.785Z,20.70
2018-06-01T06:18:10.051Z,20.47
2018-06-01T06:20:38.476Z,20.30
2018-06-01T06:23:06.878Z,21.60
2018-06-01T06:25:35.132Z,20.03
2018-06-01T06:28:03.458Z,19.90
2018-06-01T06:30:32.484Z,22.47
2018-06-01T06:33:00.751Z,22.20
2018-06-01T06:35:28.997Z,25.13
2018-06-01T06:37:58.029Z,25.70
2018-06-01T06:40:26.300Z,22.33
2018-06-01T06:42:54.592Z,23.80
2018-06-01T06:45:22.855Z,20.73
2018-06-01T06:47:51.879Z,21.77
2018-06-01T06:50:20.150Z,22.63
2018-06-01T06:52:48.429Z,22.90
2018-06-01T06:55:16.762Z,20.57
2018-06-01T06:57:44.985Z,18.97
2018-06-01T07:00:13.245Z,17.77
2018-06-01T07:02:42.304Z,19.87
2018-06-01T07:05:12.395Z,19.93
2018-06-01T07:07:40.944Z,19.60
2018-06-01T07:10:09.989Z,19.43
2018-06-01T07:12:38.237Z,22.50
2018-06-01T07:15:07.296Z,20.10
2018-06-01T07:17:35.554Z,19.83
2018-06-01T07:20:03.812Z,21.33
2018-06-01T07:22:32.090Z,24.03
2018-06-01T07:25:00.324Z,25.13
2018-06-01T07:27:28.591Z,24.13
2018-06-01T07:29:56.852Z,22.30
2018-06-01T07:32:25.127Z,24.00
2018-06-01T07:34:53.372Z,24.27
2018-06-01T07:37:22.400Z,25.10
2018-06-01T07:39:50.660Z,24.57
2018-06-01T07:42:19.693Z,25.87
2018-06-01T07:44:48.032Z,25.73
2018-06-01T07:47:16.311Z,25.50
2018-06-01T07:49:45.335Z,25.40
2018-06-01T07:52:13.722Z,24.17
2018-06-01T07:54:42.757Z,24.53
2018-06-01T07:57:11.011Z,24.47
2018-06-01T07:59:39.293Z,27.60
2018-06-01T08:02:07.568Z,29.50
2018-06-01T08:04:35.836Z,30.73
2018-06-01T08:07:04.105Z,31.07
2018-06-01T08:09:33.129Z,31.40
2018-06-01T08:12:01.402Z,37.40
2018-06-01T08:14:29.682Z,39.47
2018-06-01T08:16:57.977Z,42.77
2018-06-01T08:19:26.260Z,41.50
2018-06-01T08:21:54.499Z,41.80
2018-06-01T08:24:23.552Z,44.00
2018-06-01T08:26:51.838Z,43.20
2018-06-01T08:29:20.097Z,39.87
2018-06-01T08:31:48.332Z,38.07
2018-06-01T08:34:17.380Z,33.60
2018-06-01T08:36:45.637Z,35.10
2018-06-01T08:39:13.924Z,34.87
2018-06-01T08:41:42.182Z,36.73
2018-06-01T08:44:11.237Z,40.20
2018-06-01T08:46:39.484Z,39.60
2018-06-01T08:49:07.750Z,40.03
2018-06-01T08:51:36.776Z,42.23
2018-06-01T08:54:05.044Z,41.63
2018-06-01T08:56:33.336Z,41.70
2018-06-01T08:59:01.703Z,41.50
2018-06-01T09:01:29.865Z,42.37
2018-06-01T09:03:58.875Z,43.17
2018-06-01T09:06:27.152Z,42.43
2018-06-01T09:08:55.438Z,42.90
2018-06-01T09:11:24.465Z,42.87
2018-06-01T09:13:52.717Z,39.43
2018-06-01T09:16:20.991Z,30.57
2018-06-01T09:18:49.296Z,38.43
2018-06-01T09:21:17.555Z,37.40
2018-06-01T09:23:45.817Z,30.43
2018-06-01T09:26:14.863Z,36.07
2018-06-01T09:28:44.669Z,32.50
2018-06-01T09:31:13.104Z,30.00
2018-06-01T09:33:41.333Z,38.07
2018-06-01T09:36:09.601Z,35.60
2018-06-01T09:38:37.869Z,33.07
2018-06-01T09:41:06.366Z,38.70
2018-06-01T09:43:34.655Z,37.10
2018-06-01T09:46:02.907Z,32.80
2018-06-01T09:48:31.956Z,33.13
2018-06-01T09:51:00.224Z,32.03
2018-06-01T09:53:28.464Z,34.33
2018-06-01T09:55:56.779Z,36.20
2018-06-01T09:58:25.045Z,39.40
2018-06-01T10:00:59.039Z,36.83
2018-06-01T10:03:28.067Z,39.93
2018-06-01T10:05:56.359Z,43.60
2018-06-01T10:08:24.608Z,41.93
2018-06-01T10:10:52.910Z,45.07
2018-06-01T10:13:21.179Z,45.60
2018-06-01T10:15:49.562Z,45.80
2018-06-01T10:18:17.817Z,44.57
2018-06-01T10:20:46.095Z,44.83
2018-06-01T10:23:15.149Z,45.00
2018-06-01T10:25:43.436Z,45.70
2018-06-01T10:28:11.904Z,46.50
2018-06-01T10:30:40.161Z,45.80
2018-06-01T10:33:08.441Z,46.27
2018-06-01T10:35:36.702Z,44.77
2018-06-01T10:38:05.772Z,46.30
2018-06-01T10:40:34.040Z,46.27
2018-06-01T10:43:02.328Z,46.20
2018-06-01T10:45:30.631Z,44.37
2018-06-01T10:47:59.639Z,46.93
2018-06-01T10:50:28.701Z,45.57
2018-06-01T10:52:56.954Z,49.50
2018-06-01T10:55:25.301Z,50.50
2018-06-01T10:57:54.329Z,46.20
2018-06-01T11:00:22.591Z,47.73
2018-06-01T11:02:51.628Z,49.13
2018-06-01T11:05:19.876Z,44.77
2018-06-01T11:07:48.149Z,50.00
2018-06-01T11:10:17.464Z,50.67
2018-06-01T11:12:45.737Z,49.83
2018-06-01T11:15:14.747Z,49.20
2018-06-01T11:17:43.036Z,49.17
2018-06-01T11:20:11.307Z,51.37
2018-06-01T11:22:39.579Z,50.57
2018-06-01T11:25:07.818Z,49.03
2018-06-01T11:27:36.085Z,52.50
2018-06-01T11:30:04.335Z,49.10
2018-06-01T11:32:32.598Z,50.77
2018-06-01T11:35:00.875Z,49.00
2018-06-01T11:37:29.141Z,51.03
2018-06-01T11:39:58.170Z,50.97
2018-06-01T11:42:26.430Z,49.97
2018-06-01T11:44:55.441Z,51.60
2018-06-01T11:47:23.717Z,52.03
2018-06-01T11:49:52.756Z,52.63
2018-06-01T11:52:21.047Z,51.20
2018-06-01T11:54:49.275Z,49.00
2018-06-01T11:57:17.596Z,53.77
2018-06-01T11:59:46.871Z,50.00
2018-06-01T12:02:15.119Z,50.60
2018-06-01T12:04:44.145Z,52.90
2018-06-01T12:07:12.434Z,50.93
2018-06-01T12:09:40.701Z,53.40
2018-06-01T12:12:08.950Z,52.30
2018-06-01T12:14:38.203Z,53.70
2018-06-01T12:17:06.490Z,47.97
2018-06-01T12:19:34.747Z,48.30
2018-06-01T12:22:03.033Z,50.30
2018-06-01T12:24:31.277Z,52.07
2018-06-01T12:27:00.276Z,52.13
2018-06-01T12:29:29.717Z,49.17
2018-06-01T12:31:57.885Z,48.90
2018-06-01T12:34:27.064Z,51.80
2018-06-01T12:36:56.397Z,50.37
2018-06-01T12:39:25.607Z,51.07
2018-06-01T12:41:54.606Z,52.67
2018-06-01T12:44:22.869Z,50.77
2018-06-01T12:46:51.142Z,51.30
2018-06-01T12:49:20.200Z,53.33
2018-06-01T12:51:48.460Z,53.80
2018-06-01T12:54:16.729Z,52.10
2018-06-01T12:56:45.018Z,51.17
2018-06-01T12:59:13.265Z,56.33
2018-06-01T13:01:42.491Z,54.77
2018-06-01T13:04:10.739Z,58.97
2018-06-01T13:06:39.751Z,60.50
2018-06-01T13:09:08.029Z,60.03
2018-06-01T13:11:36.342Z,57.67
2018-06-01T13:14:04.620Z,56.67
2018-06-01T13:16:32.902Z,59.03
2018-06-01T13:19:01.228Z,56.80
2018-06-01T13:21:29.492Z,56.77
2018-06-01T13:23:57.729Z,56.40
2018-06-01T13:26:26.027Z,55.03
2018-06-01T13:28:54.300Z,58.03
2018-06-01T13:31:22.570Z,52.90
2018-06-01T13:33:50.842Z,54.10
2018-06-01T13:36:19.068Z,54.27
2018-06-01T13:38:47.584Z,55.00
2018-06-01T13:41:15.874Z,55.67
2018-06-01T13:43:44.185Z,51.23
2018-06-01T13:46:12.432Z,54.20
2018-06-01T13:48:40.981Z,52.37
2018-06-01T13:51:09.263Z,53.17
2018-06-01T13:53:37.557Z,52.70
2018-06-01T13:56:05.862Z,50.97
2018-06-01T13:58:34.097Z,50.60
2018-06-01T14:01:02.365Z,47.23
2018-06-01T14:03:30.941Z,47.70
2018-06-01T14:05:59.221Z,44.30
2018-06-01T14:08:27.492Z,44.30
2018-06-01T14:10:55.751Z,42.87
2018-06-01T14:13:24.788Z,40.67
2018-06-01T14:15:53.082Z,38.57
2018-06-01T14:18:21.337Z,39.30
2018-06-01T14:20:49.620Z,38.20
2018-06-01T14:23:17.897Z,39.60
2018-06-01T14:25:46.165Z,37.50
2018-06-01T14:28:14.453Z,39.73
2018-06-01T14:30:42.713Z,38.27
2018-06-01T14:33:11.747Z,37.30
2018-06-01T14:35:40.051Z,38.50
2018-06-01T14:38:08.317Z,38.93
2018-06-01T14:40:36.607Z,38.97
2018-06-01T14:43:04.875Z,38.13
2018-06-01T14:45:33.121Z,40.17
2018-06-01T14:48:01.399Z,39.37
2018-06-01T14:50:30.430Z,39.40
2018-06-01T14:52:58.747Z,40.57
2018-06-01T14:55:27.069Z,40.17
2018-06-01T14:57:55.329Z,36.73
2018-06-01T15:00:24.335Z,41.27
2018-06-01T15:02:53.396Z,39.23
2018-06-01T15:08:04.899Z,44.33
2018-06-01T15:10:33.153Z,41.97
2018-06-01T15:13:01.431Z,41.17
2018-06-01T15:15:29.681Z,41.00
2018-06-01T15:17:57.960Z,44.77
2018-06-01T15:20:26.228Z,46.30
2018-06-01T15:22:55.251Z,41.57
2018-06-01T15:25:23.516Z,46.87
2018-06-01T15:27:52.549Z,49.77
2018-06-01T15:30:20.802Z,47.30
2018-06-01T15:32:49.859Z,47.93
2018-06-01T15:35:18.080Z,49.27
2018-06-01T15:37:46.384Z,50.60
2018-06-01T15:40:14.633Z,49.40
2018-06-01T15:42:43.484Z,41.13
2018-06-01T15:45:11.756Z,33.70
2018-06-01T15:47:40.128Z,33.73
2018-06-01T15:50:08.366Z,35.97
2018-06-01T15:52:36.649Z,39.27
2018-06-01T15:55:05.695Z,41.57
2018-06-01T15:57:33.951Z,40.87
2018-06-01T16:00:02.268Z,41.27
2018-06-01T16:02:30.514Z,43.57
2018-06-01T16:04:58.806Z,44.70
2018-06-01T16:07:27.075Z,44.70
2018-06-01T16:09:55.338Z,43.57
2018-06-01T16:12:23.598Z,46.83
2018-06-01T16:14:52.636Z,46.73
2018-06-01T16:17:20.901Z,44.47
2018-06-01T16:19:49.194Z,45.73
2018-06-01T16:22:17.458Z,46.50
2018-06-01T16:24:45.732Z,45.50
2018-06-01T16:27:14.803Z,46.80
2018-06-01T16:29:43.052Z,44.80
2018-06-01T16:32:11.328Z,48.87
2018-06-01T16:34:39.589Z,53.40
2018-06-01T16:37:07.855Z,49.80
2018-06-01T16:39:36.859Z,50.33
2018-06-01T16:42:05.157Z,51.20
2018-06-01T16:44:33.436Z,51.87
2018-06-01T16:47:01.713Z,54.60
2018-06-01T16:49:30.014Z,53.40
2018-06-01T16:51:58.270Z,55.10
2018-06-01T16:54:27.338Z,55.93
2018-06-01T16:56:55.633Z,59.57
2018-06-01T16:59:24.670Z,63.67
2018-06-01T17:01:52.971Z,66.00
2018-06-01T17:04:21.279Z,69.53
2018-06-01T17:06:49.559Z,67.60
2018-06-01T17:09:18.612Z,69.97
2018-06-01T17:11:46.859Z,63.23
2018-06-01T17:14:15.168Z,69.00
2018-06-01T17:16:44.193Z,68.73
2018-06-01T17:19:12.498Z,64.43
2018-06-01T17:21:40.740Z,63.70
2018-06-01T17:24:09.013Z,69.77
2018-06-01T17:26:37.270Z,66.97
2018-06-01T17:29:05.541Z,65.23
2018-06-01T17:31:33.783Z,63.20
2018-06-01T17:34:03.542Z,65.07
2018-06-01T17:36:31.821Z,62.73
2018-06-01T17:39:00.081Z,62.90
2018-06-01T17:41:29.149Z,67.10
2018-06-01T17:43:57.404Z,66.27
2018-06-01T17:46:26.696Z,64.67
2018-06-01T17:48:54.944Z,65.67
2018-06-01T17:51:23.983Z,63.57
2018-06-01T17:53:52.270Z,63.47
2018-06-01T17:56:20.540Z,62.60
2018-06-01T17:58:48.798Z,62.80
2018-06-01T18:01:17.078Z,67.80
2018-06-01T18:03:46.085Z,61.43
2018-06-01T18:06:14.349Z,56.00
2018-06-01T18:08:43.394Z,55.10
2018-06-01T18:11:11.674Z,52.80
2018-06-01T18:13:39.958Z,49.67
2018-06-01T18:16:08.195Z,47.03
2018-06-01T18:18:36.444Z,47.93
2018-06-01T18:21:04.732Z,49.80
2018-06-01T18:23:32.977Z,47.67
2018-06-01T18:26:01.262Z,51.80
2018-06-01T18:28:29.506Z,50.10
2018-06-01T18:30:57.777Z,48.80
2018-06-01T18:33:26.048Z,46.40
2018-06-01T18:35:55.112Z,49.23
2018-06-01T18:38:23.368Z,46.07
2018-06-01T18:40:51.657Z,47.40
2018-06-01T18:43:20.719Z,44.57
2018-06-01T18:45:49.728Z,40.93
2018-06-01T18:48:18.051Z,40.33
2018-06-01T18:50:46.304Z,40.20
2018-06-01T18:53:15.590Z,42.93
2018-06-01T18:55:44.746Z,41.23
2018-06-01T18:58:13.014Z,41.13
2018-06-01T19:00:41.284Z,39.27
2018-06-01T19:03:09.552Z,37.70
2018-06-01T19:05:37.847Z,37.50
2018-06-01T19:08:06.127Z,36.97
2018-06-01T19:10:34.401Z,34.97
2018-06-01T19:13:02.649Z,34.47
2018-06-01T19:15:30.936Z,35.40
2018-06-01T19:17:59.184Z,34.13
2018-06-01T19:20:28.217Z,34.57
2018-06-01T19:22:56.466Z,33.77
2018-06-01T19:25:25.501Z,34.33
2018-06-01T19:27:53.762Z,35.17
2018-06-01T19:30:22.788Z,33.23
2018-06-01T19:32:51.812Z,35.70
2018-06-01T19:35:21.014Z,32.97
2018-06-01T19:37:49.292Z,34.37
2018-06-01T19:40:17.559Z,34.57
2018-06-01T19:42:45.936Z,31.37
2018-06-01T19:45:14.186Z,33.40
2018-06-01T19:47:42.473Z,29.73
2018-06-01T19:50:10.713Z,32.77
2018-06-01T19:52:38.978Z,28.43
2018-06-01T19:55:07.309Z,28.47
2018-06-01T19:57:36.305Z,27.77
2018-06-01T20:00:04.575Z,25.17
2018-06-01T20:02:32.836Z,25.87
2018-06-01T20:05:01.091Z,24.30
2018-06-01T20:07:30.340Z,22.73
2018-06-01T20:09:58.609Z,24.50
2018-06-01T20:12:27.643Z,24.30
2018-06-01T20:14:55.888Z,23.50
2018-06-01T20:17:24.906Z,25.07
2018-06-01T20:19:53.154Z,24.47
2018-06-01T20:22:21.534Z,23.07
2018-06-01T20:24:49.748Z,24.03
2018-06-01T20:27:18.000Z,25.57
2018-06-01T20:29:48.063Z,25.20
2018-06-01T20:32:17.079Z,24.00
2018-06-01T20:34:45.353Z,26.60
2018-06-01T20:37:13.629Z,26.20
2018-06-01T20:39:41.880Z,26.27
2018-06-01T20:42:10.917Z,28.97
2018-06-01T20:44:39.156Z,26.93
2018-06-01T20:47:07.433Z,24.70
2018-06-01T20:49:36.448Z,25.50
2018-06-01T20:52:05.460Z,25.80
2018-06-01T20:54:33.777Z,24.60
2018-06-01T20:57:02.025Z,24.47
2018-06-01T20:59:30.289Z,26.13
2018-06-01T21:01:58.589Z,26.00
2018-06-01T21:04:26.847Z,26.50
2018-06-01T21:06:55.141Z,27.97
2018-06-01T21:09:23.447Z,26.57
2018-06-01T21:11:52.473Z,26.20
2018-06-01T21:14:20.933Z,28.50
2018-06-01T21:16:49.210Z,27.20
2018-06-01T21:19:17.481Z,28.80
2018-06-01T21:21:45.716Z,29.13
2018-06-01T21:24:14.009Z,29.33
2018-06-01T21:26:42.272Z,31.53
2018-06-01T21:29:11.298Z,29.97
2018-06-01T21:31:39.549Z,31.30
2018-06-01T21:34:08.598Z,32.83
2018-06-01T21:36:36.853Z,33.73
2018-06-01T21:39:05.967Z,35.17
2018-06-01T21:41:34.209Z,37.57
2018-06-01T21:44:03.232Z,35.90
2018-06-01T21:46:31.484Z,37.67
2018-06-01T21:49:00.497Z,35.80
2018-06-01T21:51:29.508Z,35.00
2018-06-01T21:53:57.773Z,35.60
2018-06-01T21:56:26.046Z,35.90
2018-06-01T21:58:54.297Z,36.40
2018-06-01T22:01:22.555Z,34.87
2018-06-01T22:03:50.809Z,35.33
2018-06-01T22:06:20.267Z,34.67
2018-06-01T22:08:48.623Z,33.73
2018-06-01T22:11:16.846Z,34.07
2018-06-01T22:13:45.882Z,32.43
2018-06-01T22:16:14.123Z,35.17
2018-06-01T22:18:42.378Z,35.30
2018-06-01T22:21:10.641Z,36.57
2018-06-01T22:23:38.909Z,34.17
2018-06-01T22:26:07.168Z,30.90
2018-06-01T22:28:35.446Z,34.83
2018-06-01T22:31:04.455Z,34.67
2018-06-01T22:33:32.729Z,35.80
2018-06-01T22:36:01.730Z,34.03
2018-06-01T22:38:30.019Z,31.60
2018-06-01T22:40:58.298Z,35.23
2018-06-01T22:43:26.544Z,32.00
2018-06-01T22:45:55.585Z,35.57
2018-06-01T22:48:23.822Z,31.17
2018-06-01T22:50:52.884Z,33.33
2018-06-01T22:53:21.129Z,33.70
2018-06-01T22:55:49.473Z,32.30
2018-06-01T22:58:18.976Z,31.97
2018-06-01T23:00:47.315Z,29.23
2018-06-01T23:03:15.559Z,32.63
2018-06-01T23:05:44.609Z,32.83
2018-06-01T23:08:12.872Z,32.93
2018-06-01T23:10:41.129Z,32.47
2018-06-01T23:13:09.395Z,33.67
2018-06-01T23:15:38.449Z,32.40
2018-06-01T23:18:06.731Z,32.87
2018-06-01T23:20:35.026Z,32.20
2018-06-01T23:23:03.312Z,33.33
2018-06-01T23:25:31.599Z,34.50
2018-06-01T23:27:59.860Z,33.53
2018-06-01T23:30:28.121Z,34.03
2018-06-01T23:32:56.391Z,34.47
2018-06-01T23:35:24.637Z,32.87
2018-06-01T23:37:53.010Z,34.13
2018-06-01T23:40:21.298Z,36.63
2018-06-01T23:42:50.336Z,34.30
2018-06-01T23:45:18.593Z,34.73
2018-06-01T23:47:46.879Z,34.90
2018-06-01T23:50:15.920Z,37.53
2018-06-01T23:52:44.180Z,37.10
2018-06-01T23:55:12.456Z,39.13
2018-06-01T23:57:40.714Z,38.53
